X  Chiuso Dati meteorologici dell'aviazione (METAR)     LIPX Verona-Villafranca Valerio Catullo Airport
Temperatura
20°C Temperatura
13°C Punto di rugiada
64% Umidità



Vento
5 KM/H
3 MPH
1 M/S
3 KTS



40°
NE
Condizioni attuali

Nuvole sparse Nuvole sparse
Pressione 1014.9 (hPa) - 29.97 (inHg)
Visibilità 6 (miglio) - 9.7 (km)
Aeroporto
Codice-Aeroporto LIPX

Posizione: Verona-Villafranca Valerio Catullo Airport
Distanza: 50 (km)

Metar:
LIPX 272150Z 04003KT 340V090 9999 SCT080 20/13 Q1015

Ore: 27-05-2024 21:50 CEST